EST,Max TemperatureF,Mean TemperatureF,Min TemperatureF,Max Dew PointF,MeanDew PointF,Min DewpointF,Max Humidity, Mean Humidity, Min Humidity, Max Sea Level PressureIn, Mean Sea Level PressureIn, Min Sea Level PressureIn, Max VisibilityMiles, Mean VisibilityMiles, Min VisibilityMiles, Max Wind SpeedMPH, Mean Wind SpeedMPH, Max Gust SpeedMPH,PrecipitationIn, CloudCover, Events, WindDirDegrees
2011-11-1,53,50,48,43,41,37,82,70,58,30.32,30.30,30.28,10,10,10,12,6,,0.00,3,,58
2011-11-2,57,52,48,43,37,27,82,57,31,30.40,30.34,30.31,10,10,10,5,4,,0.00,0,,-1
2011-11-3,57,52,48,48,47,46,93,75,67,30.17,30.06,29.98,10,10,10,17,11,23,0.00,4,,232
2011-11-4,51,50,50,45,38,30,82,65,44,30.02,30.00,29.98,10,10,10,14,9,,0.00,6,,24
2011-11-5,44,42,41,30,30,30,65,60,57,30.44,30.43,30.41,10,10,10,6,5,,0.00,0,,50
2011-11-6,51,50,48,43,40,37,76,70,62,30.54,30.47,30.43,10,10,10,12,7,,0.00,0,,250
2011-11-7,57,56,50,50,49,48,94,81,77,30.34,30.29,30.26,10,10,10,14,10,,0.00,0,,213
2011-11-8,66,62,57,54,52,50,88,67,59,30.28,30.24,30.22,10,10,10,12,4,,0.00,0,,253
2011-11-9,60,58,55,57,55,54,94,88,82,30.23,30.21,30.15,10,8,0,6,3,,0.00,0,Fog,200
2011-11-10,60,60,60,59,59,57,94,92,88,29.93,29.83,29.72,2,2,1,0,0,,0.00,7,Rain,-1
2011-11-11,50,49,48,36,33,28,62,54,46,29.72,29.67,29.61,10,10,10,21,19,31,0.00,1,,313
2011-11-12,53,48,44,39,36,30,58,58,57,30.14,30.11,30.06,10,10,10,22,16,29,0.00,0,,239
2011-11-13,59,58,57,52,51,48,82,78,72,30.18,30.10,30.04,10,10,10,18,15,26,0.00,5,,207
2011-11-14,60,60,59,55,54,54,88,83,82,29.96,29.90,29.86,10,10,10,17,16,26,0.00,3,,216
2011-11-15,68,66,59,55,54,54,88,70,60,29.90,29.85,29.82,10,9,7,16,12,,0.00,6,,283
2011-11-16,57,56,55,55,54,54,94,93,88,29.95,29.85,29.76,3,2,1,0,0,,0.00,8,Rain,-1
2011-11-17,48,47,39,37,35,34,93,66,58,29.86,29.80,29.75,10,9,4,16,10,,0.00,8,Rain,348
2011-11-18,44,42,37,28,27,27,70,55,49,30.40,30.35,30.33,10,10,10,18,13,,0.00,0,,295
2011-11-19,51,50,48,43,38,36,71,63,58,30.45,30.41,30.36,10,10,10,17,16,26,0.00,3,,238
2011-11-20,59,58,57,54,53,52,88,82,77,30.16,30.12,30.07,10,10,10,17,17,29,0.00,4,,232
2011-11-21,53,52,48,46,44,43,82,75,71,30.29,30.26,30.23,10,10,10,12,2,,0.00,7,,65
2011-11-22,50,49,48,43,42,41,76,75,71,30.40,30.34,30.30,10,10,10,8,3,,0.00,7,,122
2011-11-23,53,48,42,52,45,39,94,91,87,29.72,29.63,29.56,10,6,2,10,5,,0.00,8,Rain,7
2011-11-24,,,,,,,,,,,,,,,,,,,,,,
2011-11-25,59,54,48,43,42,41,76,66,55,30.17,30.13,30.09,10,10,10,13,9,,0.00,0,,275
2011-11-26,59,59,53,48,45,41,82,64,51,30.21,30.20,30.19,10,10,10,5,5,,0.00,0,,-1
2011-11-27,59,59,59,54,54,54,82,82,82,30.18,30.17,30.16,10,10,10,12,12,,0.00,4,,220
2011-11-28,60,,60,54,54,54,77,77,77,30.18,30.18,30.18,10,10,10,18,18,,0.00,6,,230
2011-11-29,62,62,60,57,56,55,82,80,77,30.04,29.97,29.89,10,10,10,12,12,,0.00,8,,143
2011-11-30,51,51,50,41,40,39,67,66,66,29.72,29.71,29.70,10,10,10,21,18,28,0.00,2,,235